Terminal Aerodrome Forecast
Issued by NWS

Home | Current Version | Previous Version | Text Only | Print | Product List | Glossary On
Versions: 1 2 3 4 5 6 7 8 9 10 11 12
000
FTUS45 KRIW 211124
TAFRKS
TAF
KRKS 211124Z 2112/2212 21014G24KT P6SM SCT050 BKN080
     FM220300 24015G25KT P6SM BKN060
     FM220600 27014G24KT P6SM VCSH SCT030 BKN050=

USA.gov is the U.S. government's official web portal to all federal, state and local government web resources and services.